sensor_id;sensor_type;location;lat;lon;timestamp;temperature;humidity
17128;DHT22;8679;50.842;4.322;2023-05-19T12:04:01;12.00;99.90
17128;DHT22;8679;50.842;4.322;2023-05-19T12:06:32;21.70;99.30
17128;DHT22;8679;50.842;4.322;2023-05-19T12:08:58;21.90;98.40
17128;DHT22;8679;50.842;4.322;2023-05-19T12:11:24;22.20;97.30
17128;DHT22;8679;50.842;4.322;2023-05-19T12:13:57;22.50;94.70
17128;DHT22;8679;50.842;4.322;2023-05-19T12:16:22;22.70;91.20
17128;DHT22;8679;50.842;4.322;2023-05-19T12:18:48;22.90;91.30
17128;DHT22;8679;50.842;4.322;2023-05-19T12:21:14;23.00;88.20
17128;DHT22;8679;50.842;4.322;2023-05-19T12:23:41;23.30;79.10
17128;DHT22;8679;50.842;4.322;2023-05-19T12:26:07;23.60;82.30
17128;DHT22;8679;50.842;4.322;2023-05-19T12:28:33;24.00;81.30
17128;DHT22;8679;50.842;4.322;2023-05-19T12:30:58;24.30;76.20
17128;DHT22;8679;50.842;4.322;2023-05-19T15:05:24;24.50;72.90
17128;DHT22;8679;50.842;4.322;2023-05-19T15:15:11;32.00;12.00
17128;DHT22;8679;50.842;4.322;2023-05-19T15:17:37;32.50;11.20
17128;DHT22;8679;50.842;4.322;2023-05-19T15:20:03;32.90;9.00
17128;DHT22;8679;50.842;4.322;2023-05-19T15:32:14;33.40;9.30
17128;DHT22;8679;50.842;4.322;2023-05-19T15:34:39;34.70;7.20
17128;DHT22;8679;50.842;4.322;2023-05-19T16:06:19;34.70;4.30
17128;DHT22;8679;50.842;4.322;2023-05-19T16:20:56;33.50;3.70
17128;DHT22;8679;50.842;4.322;2023-05-19T16:23:21;31.40;3.40
17128;DHT22;8679;50.842;4.322;2023-05-19T16:25:49;32.00;3.60
17128;DHT22;8679;50.842;4.322;2023-05-19T16:28:15;32.40;3.10
17128;DHT22;8679;50.842;4.322;2023-05-19T16:30:41;33.00;2.30
17128;DHT22;8679;50.842;4.322;2023-05-19T16:33:07;33.30;1.20
17128;DHT22;8679;50.842;4.322;2023-05-19T16:35:33;33.00;2.10
17128;DHT22;8679;50.842;4.322;2023-05-19T16:37:58;32.80;1.90
17128;DHT22;8679;50.842;4.322;2023-05-19T16:40:24;33.00;2.70
17128;DHT22;8679;50.842;4.322;2023-05-19T16:42:54;33.30;1.50
17128;DHT22;8679;50.842;4.322;2023-05-19T16:45:21;33.40;1.00
17128;DHT22;8679;50.842;4.322;2023-05-19T16:47:47;32.90;1.00
17128;DHT22;8679;50.842;4.322;2023-05-19T16:50:12;32.40;2.30
17128;DHT22;8679;50.842;4.322;2023-05-19T16:52:38;32.50;2.90
17128;DHT22;8679;50.842;4.322;2023-05-19T16:55:05;32.70;1.30
17128;DHT22;8679;50.842;4.322;2023-05-19T16:57:30;32.70;1.90
17128;DHT22;8679;50.842;4.322;2023-05-19T16:59:57;32.60;2.50
17128;DHT22;8679;50.842;4.322;2023-05-19T17:02:22;32.40;2.10
17128;DHT22;8679;50.842;4.322;2023-05-19T17:04:48;32.20;3.10
17128;DHT22;8679;50.842;4.322;2023-05-19T17:07:14;32.50;2.50
17128;DHT22;8679;50.842;4.322;2023-05-19T17:09:43;33.20;2.00
17128;DHT22;8679;50.842;4.322;2023-05-19T17:12:09;32.90;1.00
17128;DHT22;8679;50.842;4.322;2023-05-19T17:14:35;33.30;1.80
17128;DHT22;8679;50.842;4.322;2023-05-19T17:17:01;33.40;1.60
17128;DHT22;8679;50.842;4.322;2023-05-19T17:19:27;33.40;1.00
17128;DHT22;8679;50.842;4.322;2023-05-19T17:21:53;33.30;2.40
17128;DHT22;8679;50.842;4.322;2023-05-19T17:24:18;34.30;1.40
17128;DHT22;8679;50.842;4.322;2023-05-19T17:26:44;34.10;1.10
17128;DHT22;8679;50.842;4.322;2023-05-19T17:29:10;33.90;1.00
17128;DHT22;8679;50.842;4.322;2023-05-19T17:31:36;33.20;1.00
17128;DHT22;8679;50.842;4.322;2023-05-19T17:34:01;32.00;1.90
17128;DHT22;8679;50.842;4.322;2023-05-19T17:46:12;30.60;2.10
17128;DHT22;8679;50.842;4.322;2023-05-19T17:48:38;28.10;5.50
17128;DHT22;8679;50.842;4.322;2023-05-19T17:51:06;28.10;6.20
17128;DHT22;8679;50.842;4.322;2023-05-19T17:53:32;28.30;7.10
17128;DHT22;8679;50.842;4.322;2023-05-19T17:56:00;28.60;6.90
17128;DHT22;8679;50.842;4.322;2023-05-19T17:58:27;29.00;6.40
17128;DHT22;8679;50.842;4.322;2023-05-19T18:00:54;28.60;7.60
17128;DHT22;8679;50.842;4.322;2023-05-19T18:03:20;28.40;6.60
17128;DHT22;8679;50.842;4.322;2023-05-19T18:05:46;28.70;6.80
17128;DHT22;8679;50.842;4.322;2023-05-19T18:08:12;28.60;7.40
17128;DHT22;8679;50.842;4.322;2023-05-19T18:10:40;28.40;6.40
17128;DHT22;8679;50.842;4.322;2023-05-19T18:18:00;28.00;6.60
17128;DHT22;8679;50.842;4.322;2023-05-19T18:20:27;27.00;9.10
17128;DHT22;8679;50.842;4.322;2023-05-19T18:22:55;26.70;10.00
17128;DHT22;8679;50.842;4.322;2023-05-19T18:25:22;26.60;9.90
17128;DHT22;8679;50.842;4.322;2023-05-19T18:27:48;26.40;10.50
17128;DHT22;8679;50.842;4.322;2023-05-19T18:30:14;25.90;10.10
17128;DHT22;8679;50.842;4.322;2023-05-19T18:32:40;25.80;10.00
